HETR

El Tor Airport

Egypt
METAR HETR 180000Z 00000KT CAVOK 24/17 Q1010
Observed Flight Rules
Oct-18 @ 00:00 UTC (44 minutes ago) Visual Flight Rules
Visibility Clouds
10,000+ meters
  • Clear skies
Temperatures Readings
Current 24°C / 75°F
Dewpoint 17°C / 63°F
Humidity 65%
Altimeter 29.82" Hg
Pressure 1010 hPa
Elevation 35
METAR HETR 180000Z 00000KT CAVOK 24/17 Q1010
Observed Flight Rules
Oct-18 @ 00:00 UTC
(44 minutes ago)
VFR
Clouds
  • Clear skies
Temperature Dewpoint
24°C / 75°F 17°C / 63°F
Humidity Altimeter Pressure
65% 29.82" Hg 1010 hPa